الصفحة الرئيسية
METAR-TAF:

METAR-TAF

مطار :

Weno, مايكرونيزيا

دائرة عرض: 07-28N, خط طول: 151-51E, ارتفاع: 3 متر

مراقبة الطقس الحالي

تاريخ ووقت الإصدار 16 دقيقة قبل الساعة 19:51UTC
ريح 7 عقدة من الشرق/الشمال الشرقي
درجة الحرارة 28°درجة مئوية
الرطوبة 79%
ضغط 1008 hPa
الرؤية: 24.1 كم
غيوم قليلة على ارتفاع 1400 قدم
غيوم مفككة على ارتفاع 29000 قدم

METAR: PTKK 171951Z 06007KT 15SM FEW014 BKN290 28/24 A2978 RMK SLP088 T02780243

زمن: 06:07 (20:07 UTC)

توقعات

تاريخ ووقت الإصدار 2ساعات و 34 دقيقة قبل الساعة 17:33UTC
التوقعات صالحة من17 الساعة 18 UTC إلى 18 الساعة 18 UTC
ريح 8 عقدة من الشمال الشرقي
الرؤية: 10 كم
غيوم قليلة على ارتفاع 1400 قدم
زخات في الجوار

TAF: PTKK 171733Z 1718/1818 05008KT P6SM VCSH FEW014

أرصاد الطقس والتوقعات من أكثر من 4000 مطار (تقارير الطقس للمطار METAR والتنبؤ بالطقس بالمطارTAF).

المحطات المتاحة هي النقط الصفراء والحمراء على الخريطة.

حرك المؤشر فوق النقطة لمعرفة اسم المحطة.

ثم انقر لمعرفة أرصاد وتوقعات الطقس.

لتغيير الخارطة: اضغط على الأزرار الخضراء مع رمز الصليب الأسود للتكبير. على الزر الأخضر مع شرطة للتصغير، أو على الأسهم الخضراء للخرائط المجاورة.


METAR-TAF: